createdAt,value
2023-02-15T00:00:25.936Z,34.10
2023-02-15T00:03:17.778Z,35.00
2023-02-15T00:05:46.141Z,35.70
2023-02-15T00:08:14.491Z,37.20
2023-02-15T00:10:43.125Z,38.10
2023-02-15T00:13:11.619Z,51.90
2023-02-15T00:15:39.940Z,56.00
2023-02-15T00:18:08.362Z,118.90
2023-02-15T00:20:36.707Z,177.80
2023-02-15T00:23:04.997Z,165.90
2023-02-15T00:25:33.409Z,90.50
2023-02-15T00:28:01.728Z,138.80
2023-02-15T00:30:30.131Z,111.90
2023-02-15T00:32:58.541Z,107.50
2023-02-15T00:35:26.872Z,60.30
2023-02-15T00:37:55.278Z,51.80
2023-02-15T00:40:23.690Z,103.40
2023-02-15T00:42:52.034Z,125.20
2023-02-15T00:45:22.238Z,100.30
2023-02-15T00:47:50.658Z,105.90
2023-02-15T00:50:18.974Z,111.00
2023-02-15T00:52:47.296Z,200.40
2023-02-15T00:55:15.640Z,159.00
2023-02-15T00:57:43.951Z,138.60
2023-02-15T01:00:13.413Z,98.40
2023-02-15T01:02:41.795Z,119.80
2023-02-15T01:05:10.258Z,91.10
2023-02-15T01:07:38.570Z,107.00
2023-02-15T01:10:08.592Z,137.50
2023-02-15T01:12:36.961Z,115.60
2023-02-15T01:15:05.736Z,94.40
2023-02-15T01:17:34.122Z,55.80
2023-02-15T01:20:03.024Z,58.60
2023-02-15T01:22:31.464Z,83.90
2023-02-15T01:24:59.772Z,68.20
2023-02-15T01:27:31.425Z,73.30
2023-02-15T01:29:59.772Z,55.80
2023-02-15T01:32:28.220Z,57.50
2023-02-15T01:34:56.600Z,57.90
2023-02-15T01:37:24.940Z,44.20
2023-02-15T01:39:54.571Z,39.90
2023-02-15T01:42:24.747Z,37.90
2023-02-15T01:45:02.248Z,35.90
2023-02-15T01:47:58.511Z,34.50
2023-02-15T01:53:19.923Z,33.10
2023-02-15T01:56:00.642Z,34.60
2023-02-15T01:58:30.504Z,39.90
2023-02-15T02:01:02.046Z,33.30
2023-02-15T02:04:14.501Z,37.80
2023-02-15T02:06:42.965Z,35.60
2023-02-15T02:09:11.710Z,33.10
2023-02-15T02:11:41.640Z,36.30
2023-02-15T02:14:10.031Z,32.30
2023-02-15T02:17:12.993Z,39.70
2023-02-15T02:19:50.431Z,37.30
2023-02-15T02:23:00.017Z,43.40
2023-02-15T02:26:10.545Z,41.60
2023-02-15T02:29:24.022Z,40.60
2023-02-15T02:32:35.139Z,40.60
2023-02-15T02:35:33.953Z,39.70
2023-02-15T02:38:11.614Z,51.50
2023-02-15T02:41:01.983Z,43.80
2023-02-15T02:43:41.908Z,53.70
2023-02-15T02:46:21.492Z,52.20
2023-02-15T02:48:50.895Z,58.60
2023-02-15T02:51:22.501Z,49.60
2023-02-15T02:54:01.137Z,53.90
2023-02-15T02:56:48.761Z,49.30
2023-02-15T02:59:23.180Z,54.60
2023-02-15T03:02:14.102Z,55.80
2023-02-15T03:04:59.618Z,48.20
2023-02-15T03:07:29.820Z,59.40
2023-02-15T03:10:01.651Z,48.40
2023-02-15T03:12:37.354Z,47.10
2023-02-15T03:15:21.555Z,42.80
2023-02-15T03:17:58.662Z,41.90
2023-02-15T03:20:34.091Z,46.80
2023-02-15T03:23:18.102Z,39.00
2023-02-15T03:25:53.073Z,44.60
2023-02-15T03:28:29.841Z,43.30
2023-02-15T03:31:01.409Z,55.90
2023-02-15T03:33:30.777Z,64.50
2023-02-15T03:36:20.931Z,59.80
2023-02-15T03:38:54.130Z,54.90
2023-02-15T03:41:26.769Z,48.60
2023-02-15T03:44:07.832Z,39.10
2023-02-15T03:47:06.916Z,36.40
2023-02-15T03:50:51.491Z,39.00
2023-02-15T03:53:23.636Z,45.20
2023-02-15T03:55:55.917Z,43.90
2023-02-15T03:58:42.795Z,46.30
2023-02-15T04:01:58.177Z,33.70
2023-02-15T04:04:34.819Z,28.40
2023-02-15T04:07:06.216Z,25.00
2023-02-15T04:09:53.090Z,34.00
2023-02-15T04:12:21.766Z,36.90
2023-02-15T04:15:08.747Z,47.70
2023-02-15T04:17:38.997Z,40.60
2023-02-15T04:20:28.097Z,29.50
2023-02-15T04:23:15.139Z,28.00
2023-02-15T04:25:43.508Z,26.40
2023-02-15T04:28:11.863Z,28.00
2023-02-15T04:30:40.184Z,26.80
2023-02-15T04:33:08.616Z,26.60
2023-02-15T04:35:37.016Z,29.10
2023-02-15T04:38:05.388Z,30.10
2023-02-15T04:40:33.758Z,30.80
2023-02-15T04:43:02.154Z,28.80
2023-02-15T04:45:30.648Z,29.60
2023-02-15T04:47:59.091Z,27.10
2023-02-15T04:50:27.535Z,28.00
2023-02-15T04:52:55.902Z,26.00
2023-02-15T04:55:24.310Z,30.70
2023-02-15T04:57:52.741Z,67.50
2023-02-15T05:00:21.269Z,74.40
2023-02-15T05:02:49.592Z,222.10
2023-02-15T05:05:18.234Z,194.10
2023-02-15T05:07:46.803Z,77.10
2023-02-15T05:10:15.451Z,139.10
2023-02-15T05:12:43.839Z,94.60
2023-02-15T05:15:12.127Z,67.60
2023-02-15T05:17:40.511Z,107.80
2023-02-15T05:20:09.436Z,46.70
2023-02-15T05:22:37.912Z,52.70
2023-02-15T05:25:25.432Z,63.50
2023-02-15T05:28:12.694Z,50.80
2023-02-15T05:30:41.279Z,40.90
2023-02-15T05:33:09.957Z,40.90
2023-02-15T05:35:38.348Z,70.10
2023-02-15T05:38:06.840Z,45.40
2023-02-15T05:40:35.666Z,57.70
2023-02-15T05:43:04.039Z,37.30
2023-02-15T05:45:32.460Z,48.50
2023-02-15T05:48:00.919Z,41.60
2023-02-15T05:50:29.380Z,38.40
2023-02-15T05:52:57.722Z,32.70
2023-02-15T05:55:26.163Z,27.60
2023-02-15T05:57:54.458Z,26.90
2023-02-15T06:00:23.080Z,30.20
2023-02-15T06:02:51.363Z,28.50
2023-02-15T06:05:19.798Z,27.40
2023-02-15T06:07:48.140Z,26.10
2023-02-15T06:10:16.786Z,27.20
2023-02-15T06:12:46.139Z,26.60
2023-02-15T06:15:15.122Z,27.20
2023-02-15T06:17:43.876Z,28.70
2023-02-15T06:20:13.259Z,42.90
2023-02-15T06:22:41.638Z,35.80
2023-02-15T06:25:12.283Z,33.10
2023-02-15T06:27:43.691Z,29.50
2023-02-15T06:30:13.104Z,28.90
2023-02-15T06:32:41.973Z,34.80
2023-02-15T06:35:10.438Z,52.00
2023-02-15T06:37:39.426Z,55.60
2023-02-15T06:40:09.357Z,34.20
2023-02-15T06:42:38.052Z,94.00
2023-02-15T06:45:11.919Z,114.50
2023-02-15T06:47:40.644Z,67.70
2023-02-15T06:50:10.347Z,50.50
2023-02-15T06:52:38.852Z,40.50
2023-02-15T06:55:07.623Z,31.30
2023-02-15T06:57:36.065Z,38.70
2023-02-15T07:00:05.952Z,45.10
2023-02-15T07:02:34.585Z,43.30
2023-02-15T07:05:03.797Z,52.70
2023-02-15T07:07:34.120Z,65.00
2023-02-15T07:10:03.089Z,69.10
2023-02-15T07:12:43.811Z,50.50
2023-02-15T07:15:16.672Z,44.20
2023-02-15T07:17:45.651Z,49.40
2023-02-15T07:20:22.452Z,56.00
2023-02-15T07:22:51.610Z,34.30
2023-02-15T07:25:20.322Z,70.00
2023-02-15T07:27:48.876Z,42.60
2023-02-15T07:30:18.166Z,39.10
2023-02-15T07:33:05.990Z,38.90
2023-02-15T07:35:35.272Z,37.80
2023-02-15T07:38:03.730Z,42.70
2023-02-15T07:40:32.095Z,32.90
2023-02-15T07:43:00.553Z,60.90
2023-02-15T07:45:28.924Z,39.40
2023-02-15T07:47:57.288Z,31.20
2023-02-15T07:50:25.712Z,31.70
2023-02-15T07:52:54.217Z,36.30
2023-02-15T07:55:22.677Z,41.50
2023-02-15T07:57:51.862Z,34.50
2023-02-15T08:00:25.740Z,27.80
2023-02-15T08:03:16.232Z,29.30
2023-02-15T08:05:45.965Z,26.80
2023-02-15T08:08:30.685Z,25.80
2023-02-15T08:11:26.302Z,22.50
2023-02-15T08:14:04.678Z,37.00
2023-02-15T08:16:55.859Z,50.40
2023-02-15T08:19:28.504Z,33.40
2023-02-15T08:22:01.054Z,35.30
2023-02-15T08:24:33.551Z,38.20
2023-02-15T08:27:06.012Z,32.80
2023-02-15T08:29:36.980Z,64.90
2023-02-15T08:32:10.855Z,34.80
2023-02-15T08:34:42.725Z,26.80
2023-02-15T08:37:11.337Z,29.20
2023-02-15T08:39:39.620Z,26.90
2023-02-15T08:42:07.945Z,30.70
2023-02-15T08:44:36.279Z,26.50
2023-02-15T08:47:05.064Z,27.50
2023-02-15T08:49:33.521Z,24.90
2023-02-15T08:52:01.938Z,25.80
2023-02-15T08:54:30.636Z,24.80
2023-02-15T08:57:00.537Z,24.70
2023-02-15T08:59:28.928Z,31.30
2023-02-15T09:01:57.316Z,24.10
2023-02-15T09:04:25.651Z,24.60
2023-02-15T09:06:54.052Z,24.00
2023-02-15T09:09:23.010Z,25.80
2023-02-15T09:11:57.904Z,26.30
2023-02-15T09:14:28.417Z,25.80
2023-02-15T09:16:57.268Z,31.00
2023-02-15T09:19:26.105Z,26.20
2023-02-15T09:21:55.057Z,26.40
2023-02-15T09:24:23.598Z,25.10
2023-02-15T09:26:52.046Z,26.60
2023-02-15T09:29:21.245Z,25.30
2023-02-15T09:31:51.853Z,26.10
2023-02-15T09:34:23.064Z,23.70
2023-02-15T09:36:52.791Z,25.60
2023-02-15T09:39:25.811Z,26.20
2023-02-15T09:42:15.976Z,25.40
2023-02-15T09:44:52.749Z,23.50
2023-02-15T09:48:02.537Z,25.10
2023-02-15T09:50:44.529Z,28.70
2023-02-15T09:53:44.579Z,24.20
2023-02-15T09:56:26.652Z,20.40
2023-02-15T09:59:17.435Z,22.60
2023-02-15T10:01:57.886Z,23.40
2023-02-15T10:04:39.808Z,29.60
2023-02-15T10:07:27.319Z,25.20
2023-02-15T10:10:15.373Z,24.10
2023-02-15T10:13:03.481Z,21.40
2023-02-15T10:16:15.921Z,20.30
2023-02-15T10:19:28.740Z,23.30
2023-02-15T10:22:11.628Z,23.30
2023-02-15T10:25:05.067Z,20.00
2023-02-15T10:27:40.112Z,22.40
2023-02-15T10:30:47.475Z,22.80
2023-02-15T10:33:43.369Z,21.30
2023-02-15T10:36:41.294Z,22.30
2023-02-15T10:39:29.221Z,21.70
2023-02-15T10:42:21.147Z,20.70
2023-02-15T10:45:19.047Z,21.50
2023-02-15T10:48:17.790Z,21.20
2023-02-15T10:51:01.692Z,21.70
2023-02-15T10:53:51.606Z,22.70
2023-02-15T10:56:44.435Z,24.50
2023-02-15T10:59:24.974Z,24.40
2023-02-15T11:02:08.581Z,23.20
2023-02-15T11:04:55.569Z,27.40
2023-02-15T11:07:36.655Z,28.40
2023-02-15T11:10:32.089Z,27.10
2023-02-15T11:13:10.769Z,27.30
2023-02-15T11:16:04.424Z,26.60
2023-02-15T11:18:44.888Z,27.70
2023-02-15T11:21:27.152Z,26.10
2023-02-15T11:24:10.688Z,27.80
2023-02-15T11:26:45.586Z,25.30
2023-02-15T11:30:10.289Z,27.10
2023-02-15T11:32:42.306Z,25.20
2023-02-15T11:35:10.636Z,25.30
2023-02-15T11:38:11.130Z,24.50
2023-02-15T11:40:48.938Z,24.50
2023-02-15T11:43:41.555Z,24.60
2023-02-15T11:46:13.696Z,24.40
2023-02-15T11:48:43.463Z,25.80
2023-02-15T11:51:24.331Z,23.40
2023-02-15T11:53:53.065Z,23.60
2023-02-15T11:56:27.226Z,22.80
2023-02-15T11:58:57.253Z,22.90
2023-02-15T12:01:44.309Z,21.00
2023-02-15T12:04:25.972Z,20.80
2023-02-15T12:07:03.160Z,21.30
2023-02-15T12:09:54.968Z,20.00
2023-02-15T12:12:32.098Z,21.50
2023-02-15T12:15:05.472Z,22.50
2023-02-15T12:17:40.138Z,23.30
2023-02-15T12:20:35.504Z,22.20
2023-02-15T12:23:12.577Z,22.70
2023-02-15T12:25:52.929Z,23.00
2023-02-15T12:28:35.011Z,21.10
2023-02-15T12:31:10.721Z,19.40
2023-02-15T12:33:47.043Z,22.10
2023-02-15T12:36:20.026Z,22.40
2023-02-15T12:39:14.012Z,22.60
2023-02-15T12:41:54.971Z,22.40
2023-02-15T12:44:35.563Z,19.10
2023-02-15T12:47:06.228Z,20.00
2023-02-15T12:49:39.647Z,22.00
2023-02-15T12:52:18.923Z,20.20
2023-02-15T12:54:48.351Z,21.60
2023-02-15T12:57:27.326Z,21.90
2023-02-15T13:00:15.922Z,22.40
2023-02-15T13:02:57.752Z,20.90
2023-02-15T13:05:39.653Z,19.70
2023-02-15T13:08:32.528Z,19.30
2023-02-15T13:11:04.614Z,20.40
2023-02-15T13:13:39.814Z,19.40
2023-02-15T13:18:46.404Z,19.30
2023-02-15T13:21:24.662Z,20.90
2023-02-15T13:24:01.333Z,28.70
2023-02-15T13:26:33.548Z,35.20
2023-02-15T13:29:13.859Z,21.60
2023-02-15T13:31:43.973Z,22.30
2023-02-15T13:34:20.782Z,33.30
2023-02-15T13:37:09.615Z,26.70
2023-02-15T13:40:03.213Z,29.80
2023-02-15T13:42:51.492Z,21.60
2023-02-15T13:45:52.139Z,18.90
2023-02-15T13:48:51.282Z,20.00
2023-02-15T13:52:01.526Z,17.80
2023-02-15T13:55:39.805Z,19.80
2023-02-15T13:58:49.187Z,20.30
2023-02-15T14:01:40.547Z,20.20
2023-02-15T14:04:46.647Z,22.40
2023-02-15T14:07:53.151Z,21.60
2023-02-15T14:10:39.565Z,20.90
2023-02-15T14:13:26.127Z,18.40
2023-02-15T14:16:22.431Z,20.00
2023-02-15T14:19:09.797Z,19.60
2023-02-15T14:22:06.075Z,20.60
2023-02-15T14:25:14.878Z,20.20
2023-02-15T14:28:11.569Z,19.00
2023-02-15T14:30:44.407Z,19.80
2023-02-15T14:33:16.443Z,20.70
2023-02-15T14:35:45.060Z,19.60
2023-02-15T14:38:27.288Z,18.60
2023-02-15T14:41:12.863Z,18.30
2023-02-15T14:44:11.957Z,19.80
2023-02-15T14:46:52.856Z,19.80
2023-02-15T14:49:29.876Z,20.00
2023-02-15T14:52:03.354Z,20.10
2023-02-15T14:54:33.671Z,21.20
2023-02-15T14:57:02.327Z,20.90
2023-02-15T14:59:33.427Z,18.10
2023-02-15T15:02:16.488Z,19.50
2023-02-15T15:05:10.567Z,19.60
2023-02-15T15:07:44.960Z,20.30
2023-02-15T15:10:18.952Z,23.40
2023-02-15T15:12:50.124Z,24.50
2023-02-15T15:15:21.484Z,24.20
2023-02-15T15:17:57.760Z,25.20
2023-02-15T15:20:52.613Z,23.30
2023-02-15T15:23:23.895Z,22.10
2023-02-15T15:25:57.696Z,24.20
2023-02-15T15:28:35.091Z,22.60
2023-02-15T15:31:31.621Z,24.50
2023-02-15T15:34:46.695Z,20.30
2023-02-15T15:38:03.204Z,18.50
2023-02-15T15:43:47.801Z,20.50
2023-02-15T15:46:59.410Z,19.30
2023-02-15T15:49:35.738Z,20.80
2023-02-15T15:52:18.106Z,21.70
2023-02-15T15:54:53.458Z,20.60
2023-02-15T15:57:40.304Z,18.80
2023-02-15T16:00:36.256Z,23.40
2023-02-15T16:05:40.634Z,33.20
2023-02-15T16:08:09.191Z,28.20
2023-02-15T16:10:39.009Z,26.10
2023-02-15T16:13:08.254Z,36.80
2023-02-15T16:15:47.993Z,24.30
2023-02-15T16:18:21.519Z,23.80
2023-02-15T16:23:56.134Z,21.50
2023-02-15T16:27:00.226Z,20.90
2023-02-15T16:29:35.177Z,23.70
2023-02-15T16:32:29.059Z,23.60
2023-02-15T16:35:01.172Z,23.70
2023-02-15T16:37:36.154Z,21.90
2023-02-15T16:40:05.312Z,24.40
2023-02-15T16:42:35.738Z,25.10
2023-02-15T16:45:18.162Z,28.00
2023-02-15T16:47:54.934Z,29.70
2023-02-15T16:50:37.487Z,30.10
2023-02-15T16:53:15.139Z,34.00
2023-02-15T16:55:43.845Z,33.40
2023-02-15T16:58:18.706Z,35.50
2023-02-15T17:00:47.456Z,37.70
2023-02-15T17:03:25.967Z,36.60
2023-02-15T17:05:58.917Z,40.00
2023-02-15T17:08:45.406Z,40.90
2023-02-15T17:11:22.930Z,42.20
2023-02-15T17:14:03.671Z,39.90
2023-02-15T17:16:49.970Z,56.10
2023-02-15T17:19:51.466Z,53.00
2023-02-15T17:22:27.843Z,30.60
2023-02-15T17:25:02.331Z,26.80
2023-02-15T17:27:34.114Z,25.30
2023-02-15T17:30:18.712Z,25.50
2023-02-15T17:33:03.030Z,23.90
2023-02-15T17:35:34.416Z,24.80
2023-02-15T17:38:05.540Z,25.00
2023-02-15T17:40:36.813Z,25.20
2023-02-15T17:43:05.210Z,23.70
2023-02-15T17:45:45.333Z,25.10
2023-02-15T17:48:37.490Z,25.40
2023-02-15T17:51:12.449Z,30.00
2023-02-15T17:54:02.393Z,28.00
2023-02-15T17:56:30.759Z,26.60
2023-02-15T17:58:59.089Z,28.70
2023-02-15T18:01:46.326Z,50.40
2023-02-15T18:04:34.496Z,54.80
2023-02-15T18:07:21.706Z,50.50
2023-02-15T18:10:08.785Z,55.40
2023-02-15T18:12:38.604Z,57.90
2023-02-15T18:15:10.875Z,53.90
2023-02-15T18:17:45.802Z,43.10
2023-02-15T18:20:24.778Z,42.30
2023-02-15T18:22:53.663Z,44.60
2023-02-15T18:25:25.473Z,69.40
2023-02-15T18:27:55.396Z,50.90
2023-02-15T18:30:26.766Z,35.80
2023-02-15T18:32:57.700Z,33.70
2023-02-15T18:35:31.543Z,36.00
2023-02-15T18:38:01.831Z,34.80
2023-02-15T18:40:30.338Z,32.60
2023-02-15T18:42:58.690Z,33.40
2023-02-15T18:45:32.982Z,33.50
2023-02-15T18:48:01.685Z,33.30
2023-02-15T18:50:34.460Z,31.60
2023-02-15T18:53:06.034Z,31.70
2023-02-15T18:55:35.555Z,32.70
2023-02-15T18:58:04.217Z,34.20
2023-02-15T19:00:35.453Z,31.80
2023-02-15T19:03:03.799Z,31.50
2023-02-15T19:05:33.347Z,31.40
2023-02-15T19:08:02.813Z,32.00
2023-02-15T19:10:33.802Z,29.50
2023-02-15T19:13:02.153Z,29.80
2023-02-15T19:15:30.895Z,30.60
2023-02-15T19:17:59.279Z,30.70
2023-02-15T19:20:43.858Z,28.50
2023-02-15T19:23:19.429Z,28.40
2023-02-15T19:25:49.780Z,30.70
2023-02-15T19:28:44.980Z,30.60
2023-02-15T19:31:13.828Z,30.90
2023-02-15T19:33:42.197Z,32.20
2023-02-15T19:36:17.926Z,32.10
2023-02-15T19:38:51.828Z,33.40
2023-02-15T19:41:34.344Z,34.30
2023-02-15T19:44:02.710Z,32.70
2023-02-15T19:46:31.375Z,34.20
2023-02-15T19:48:59.888Z,37.00
2023-02-15T19:51:28.299Z,35.40
2023-02-15T19:53:57.798Z,35.00
2023-02-15T19:56:27.792Z,36.20
2023-02-15T19:58:57.824Z,31.80
2023-02-15T20:01:26.296Z,33.20
2023-02-15T20:03:55.644Z,37.00
2023-02-15T20:06:24.098Z,35.20
2023-02-15T20:08:53.464Z,31.50
2023-02-15T20:11:21.921Z,32.00
2023-02-15T20:13:50.247Z,32.20
2023-02-15T20:16:18.635Z,30.50
2023-02-15T20:18:46.960Z,31.40
2023-02-15T20:21:16.364Z,27.80
2023-02-15T20:23:45.772Z,30.90
2023-02-15T20:26:18.388Z,36.60
2023-02-15T20:28:47.200Z,42.00
2023-02-15T20:31:20.277Z,79.60
2023-02-15T20:33:49.456Z,61.70
2023-02-15T20:36:21.420Z,40.10
2023-02-15T20:38:49.942Z,39.60
2023-02-15T20:41:37.392Z,35.10
2023-02-15T20:44:22.741Z,32.60
2023-02-15T20:46:55.414Z,35.50
2023-02-15T20:49:25.883Z,37.80
2023-02-15T20:51:56.324Z,51.40
2023-02-15T20:54:33.439Z,49.20
2023-02-15T20:57:02.315Z,34.40
2023-02-15T20:59:34.387Z,36.80
2023-02-15T21:02:23.043Z,34.00
2023-02-15T21:04:51.753Z,32.40
2023-02-15T21:07:22.356Z,32.10
2023-02-15T21:09:52.355Z,34.30
2023-02-15T21:12:22.071Z,31.80
2023-02-15T21:14:50.716Z,76.60
2023-02-15T21:17:19.188Z,52.00
2023-02-15T21:19:47.562Z,37.90
2023-02-15T21:22:16.714Z,35.50
2023-02-15T21:24:51.166Z,35.30
2023-02-15T21:27:19.675Z,32.50
2023-02-15T21:29:48.069Z,38.20
2023-02-15T21:32:16.657Z,34.90
2023-02-15T21:34:45.049Z,32.70
2023-02-15T21:37:35.493Z,41.10
2023-02-15T21:40:06.988Z,41.30
2023-02-15T21:42:53.984Z,40.70
2023-02-15T21:45:40.830Z,36.00
2023-02-15T21:48:09.436Z,38.30
2023-02-15T21:50:57.079Z,36.10
2023-02-15T21:53:33.849Z,46.20
2023-02-15T21:56:06.150Z,165.00
2023-02-15T21:58:36.866Z,51.00
2023-02-15T22:01:06.102Z,78.30
2023-02-15T22:03:38.171Z,65.40
2023-02-15T22:06:06.857Z,53.80
2023-02-15T22:08:35.681Z,54.20
2023-02-15T22:11:14.588Z,50.10
2023-02-15T22:13:44.100Z,44.90
2023-02-15T22:16:23.079Z,47.90
2023-02-15T22:18:51.535Z,45.20
2023-02-15T22:21:20.869Z,44.50
2023-02-15T22:23:49.293Z,48.90
2023-02-15T22:26:24.531Z,84.80
2023-02-15T22:28:53.169Z,90.80
2023-02-15T22:31:23.382Z,81.00
2023-02-15T22:33:51.947Z,135.70
2023-02-15T22:36:30.400Z,68.00
2023-02-15T22:38:58.787Z,46.30
2023-02-15T22:41:31.199Z,55.60
2023-02-15T22:44:00.104Z,73.60
2023-02-15T22:46:28.758Z,61.20
2023-02-15T22:48:57.123Z,46.30
2023-02-15T22:51:25.594Z,53.60
2023-02-15T22:53:54.045Z,53.00
2023-02-15T22:56:37.036Z,52.00
2023-02-15T22:59:28.912Z,51.40
2023-02-15T23:01:58.072Z,55.80
2023-02-15T23:04:29.472Z,48.30
2023-02-15T23:07:00.668Z,48.90
2023-02-15T23:09:29.038Z,48.70
2023-02-15T23:11:57.411Z,47.20
2023-02-15T23:14:35.048Z,54.30
2023-02-15T23:17:03.530Z,51.30
2023-02-15T23:19:32.229Z,53.70
2023-02-15T23:22:00.681Z,61.40
2023-02-15T23:24:34.458Z,53.20
2023-02-15T23:27:21.433Z,50.20
2023-02-15T23:29:49.896Z,47.70
2023-02-15T23:32:20.392Z,51.20
2023-02-15T23:34:48.784Z,48.00
2023-02-15T23:37:17.947Z,58.10
2023-02-15T23:40:04.706Z,53.20
2023-02-15T23:42:35.312Z,49.20
2023-02-15T23:45:06.186Z,48.00
2023-02-15T23:47:54.109Z,52.50
2023-02-15T23:50:29.659Z,48.70
2023-02-15T23:52:58.727Z,48.00
2023-02-15T23:55:41.150Z,49.50
2023-02-15T23:58:21.944Z,47.90
